Time;durP1;ratioP1;P1;durP2;ratioP2;P2;SDS_P1;SDS_P2;PMS_P1;PMS_P2;Temp;Humidity;BMP_temperature;BMP_pressure;BME280_temperature;BME280_humidity;BME280_pressure;Samples;Min_cycle;Max_cycle;Signal;HPM_P1;HPM_P2
2021/03/14 00:00:42;;;;;;;4.20;0.80;;;16.70;53.70;;;;;;5051953;28;20182;-74
2021/03/14 00:03:09;;;;;;;4.28;1.15;;;16.70;53.60;;;;;;5051902;28;20029;-74
2021/03/14 00:05:39;;;;;;;2.13;0.75;;;16.70;53.60;;;;;;5053039;28;20127;-73
2021/03/14 00:08:08;;;;;;;4.57;1.10;;;16.60;53.50;;;;;;5053281;28;20028;-73
2021/03/14 00:10:35;;;;;;;3.55;1.15;;;16.60;53.60;;;;;;5035563;28;20029;-73
2021/03/14 00:13:01;;;;;;;4.50;0.90;;;16.60;53.50;;;;;;5053077;28;20048;-73
2021/03/14 00:15:27;;;;;;;5.13;1.25;;;16.60;53.60;;;;;;5051825;28;20476;-73
2021/03/14 00:17:53;;;;;;;5.10;1.13;;;16.50;53.60;;;;;;5052257;28;20552;-73
2021/03/14 00:20:19;;;;;;;3.67;0.82;;;16.50;53.60;;;;;;5052354;28;20021;-73
2021/03/14 00:22:46;;;;;;;4.18;1.00;;;16.40;53.60;;;;;;5052770;28;20071;-73
2021/03/14 00:25:13;;;;;;;3.58;1.27;;;16.40;53.60;;;;;;5052179;28;20124;-73
2021/03/14 00:27:38;;;;;;;2.95;1.33;;;16.40;53.60;;;;;;5053011;28;20017;-73
2021/03/14 00:30:06;;;;;;;2.40;0.90;;;16.40;53.70;;;;;;5052155;28;20090;-73
2021/03/14 00:32:32;;;;;;;2.75;0.85;;;16.30;53.60;;;;;;5051044;28;20023;-73
2021/03/14 00:34:58;;;;;;;3.75;1.00;;;16.30;53.60;;;;;;5051589;28;20033;-73
2021/03/14 00:37:24;;;;;;;3.75;0.85;;;16.30;53.60;;;;;;5052476;28;20024;-73
2021/03/14 00:39:49;;;;;;;3.78;1.42;;;16.20;53.50;;;;;;5051759;28;20068;-73
2021/03/14 00:42:15;;;;;;;3.90;0.98;;;16.20;53.50;;;;;;5052421;28;20480;-73
2021/03/14 00:44:41;;;;;;;2.75;0.95;;;16.20;54.10;;;;;;5052340;28;20033;-73
2021/03/14 00:47:08;;;;;;;3.33;1.05;;;16.10;53.50;;;;;;5051242;28;20025;-73
2021/03/14 00:49:33;;;;;;;4.28;0.85;;;16.10;53.50;;;;;;5051905;28;20162;-73
2021/03/14 00:51:59;;;;;;;4.22;1.05;;;16.00;53.50;;;;;;5052123;28;20108;-73
2021/03/14 00:54:24;;;;;;;3.47;1.05;;;16.00;53.50;;;;;;5051889;28;20484;-73
2021/03/14 00:56:50;;;;;;;2.63;1.20;;;16.00;53.50;;;;;;5051729;28;20024;-73
2021/03/14 00:59:15;;;;;;;6.00;1.40;;;16.00;53.50;;;;;;5051669;28;20583;-74
2021/03/14 01:01:41;;;;;;;4.35;1.00;;;15.90;53.50;;;;;;5051638;28;20180;-73
2021/03/14 01:04:07;;;;;;;3.15;0.88;;;15.90;53.40;;;;;;5051597;28;20068;-73
2021/03/14 01:06:32;;;;;;;3.67;1.10;;;15.90;53.50;;;;;;5051256;28;20033;-73
2021/03/14 01:08:58;;;;;;;4.03;0.90;;;15.90;53.50;;;;;;5051192;28;20072;-73
2021/03/14 01:11:24;;;;;;;4.18;1.08;;;15.80;53.50;;;;;;5051462;28;20083;-73
2021/03/14 01:13:50;;;;;;;5.57;1.27;;;15.80;53.50;;;;;;5051830;28;20393;-73
2021/03/14 01:16:15;;;;;;;4.53;1.23;;;15.80;53.60;;;;;;5051211;28;20032;-72
2021/03/14 01:18:41;;;;;;;4.22;1.17;;;15.70;53.50;;;;;;5051448;28;20051;-72
2021/03/14 01:21:07;;;;;;;4.07;1.10;;;15.70;53.50;;;;;;5051807;28;20029;-72
2021/03/14 01:23:32;;;;;;;4.32;1.35;;;15.70;53.60;;;;;;5051653;28;20025;-72
2021/03/14 01:25:59;;;;;;;2.92;0.80;;;15.60;53.60;;;;;;5051232;28;20033;-72
2021/03/14 01:28:24;;;;;;;4.95;1.20;;;15.60;53.60;;;;;;5051304;28;20033;-72
2021/03/14 01:30:50;;;;;;;4.15;1.63;;;15.50;53.50;;;;;;5051306;28;20052;-73
2021/03/14 01:33:16;;;;;;;3.75;0.95;;;15.50;53.60;;;;;;5051168;28;20029;-73
2021/03/14 01:35:41;;;;;;;3.35;0.90;;;15.50;53.70;;;;;;5051186;28;20029;-72
2021/03/14 01:38:07;;;;;;;4.43;1.00;;;15.40;53.80;;;;;;5051509;28;20021;-73
2021/03/14 01:40:33;;;;;;;3.83;0.95;;;15.40;53.70;;;;;;5051236;28;20630;-72
2021/03/14 01:42:58;;;;;;;4.72;0.80;;;15.40;53.80;;;;;;5051216;28;20382;-72
2021/03/14 01:45:25;;;;;;;4.85;1.20;;;15.30;53.80;;;;;;5051466;28;20041;-73
2021/03/14 01:47:53;;;;;;;3.88;0.82;;;15.30;53.80;;;;;;5050937;28;20040;-72
2021/03/14 01:50:24;;;;;;;5.57;1.45;;;15.30;53.90;;;;;;5051449;28;20523;-73
2021/03/14 01:52:51;;;;;;;3.50;1.02;;;15.30;53.80;;;;;;5051338;28;20025;-73
2021/03/14 01:55:20;;;;;;;3.20;1.25;;;15.30;53.80;;;;;;5050662;28;20044;-73
2021/03/14 01:57:47;;;;;;;4.43;1.15;;;15.20;53.80;;;;;;5051166;28;20053;-73
2021/03/14 02:00:15;;;;;;;4.35;0.93;;;15.20;54.30;;;;;;5050483;28;20476;-73
2021/03/14 02:02:41;;;;;;;5.65;1.00;;;15.20;53.80;;;;;;5048961;28;20025;-72
2021/03/14 02:05:09;;;;;;;6.15;1.10;;;15.20;53.80;;;;;;5050960;28;20051;-73
2021/03/14 02:07:36;;;;;;;4.35;1.17;;;15.20;53.80;;;;;;5051044;28;20021;-72
2021/03/14 02:10:03;;;;;;;5.63;1.15;;;15.20;53.70;;;;;;5050487;28;20060;-73
2021/03/14 02:12:36;;;;;;;4.45;1.35;;;15.10;53.70;;;;;;5050763;28;20603;-72
2021/03/14 02:15:04;;;;;;;3.75;0.90;;;15.10;53.70;;;;;;5051344;28;20025;-73
2021/03/14 02:17:33;;;;;;;2.80;1.00;;;15.10;53.60;;;;;;5050926;28;20025;-73
2021/03/14 02:20:07;;;;;;;4.63;1.02;;;15.10;53.70;;;;;;5051126;28;20025;-72
2021/03/14 02:22:33;;;;;;;5.40;1.30;;;15.10;53.70;;;;;;5050853;28;20032;-72
2021/03/14 02:25:06;;;;;;;3.92;1.40;;;15.10;53.70;;;;;;5050483;28;20167;-73
2021/03/14 02:27:32;;;;;;;3.80;1.02;;;15.00;53.60;;;;;;5050836;28;20536;-72
2021/03/14 02:29:58;;;;;;;3.17;1.00;;;15.00;53.70;;;;;;5050885;28;20111;-73
2021/03/14 02:32:24;;;;;;;3.40;1.15;;;15.00;53.60;;;;;;5050214;28;20013;-72
2021/03/14 02:34:56;;;;;;;5.57;1.25;;;15.00;53.60;;;;;;5050834;28;20021;-72
2021/03/14 02:37:22;;;;;;;3.28;0.80;;;15.00;53.70;;;;;;5050165;28;20032;-72
2021/03/14 02:39:53;;;;;;;5.85;1.10;;;15.00;53.60;;;;;;5053244;28;20017;-73
2021/03/14 02:42:19;;;;;;;4.97;0.90;;;14.90;53.50;;;;;;5054100;28;20063;-72
2021/03/14 02:44:49;;;;;;;4.95;1.10;;;14.90;53.60;;;;;;5037036;28;20064;-72
2021/03/14 02:47:18;;;;;;;4.35;1.10;;;15.00;53.60;;;;;;5054035;28;20477;-72
2021/03/14 02:49:43;;;;;;;5.00;1.30;;;14.90;53.60;;;;;;5054546;28;20124;-73
2021/03/14 02:52:09;;;;;;;2.95;0.90;;;14.90;53.60;;;;;;5053928;28;20096;-72
2021/03/14 02:54:37;;;;;;;4.25;0.90;;;14.90;53.70;;;;;;5053932;28;20036;-72
2021/03/14 02:57:04;;;;;;;5.15;0.90;;;14.80;53.70;;;;;;5054486;28;20021;-72
2021/03/14 02:59:31;;;;;;;3.08;0.82;;;14.80;53.70;;;;;;5054172;28;20507;-72
2021/03/14 03:01:57;;;;;;;5.55;1.10;;;14.80;53.70;;;;;;5053875;28;20096;-72
2021/03/14 03:04:25;;;;;;;4.25;1.20;;;14.80;53.70;;;;;;5053840;28;20116;-72
2021/03/14 03:06:55;;;;;;;5.55;1.33;;;14.80;54.30;;;;;;5053822;28;20031;-72
2021/03/14 03:09:21;;;;;;;5.68;1.23;;;14.80;53.80;;;;;;5053379;28;20480;-72
2021/03/14 03:11:51;;;;;;;4.20;0.73;;;14.70;53.80;;;;;;5053388;28;20060;-72
2021/03/14 03:14:20;;;;;;;4.53;1.20;;;14.80;53.90;;;;;;5054198;28;20033;-72
2021/03/14 03:16:50;;;;;;;3.05;0.98;;;14.80;53.90;;;;;;5054129;28;20484;-72
2021/03/14 03:19:18;;;;;;;4.50;1.55;;;14.70;54.40;;;;;;5053861;28;20032;-72
2021/03/14 03:21:44;;;;;;;2.40;0.80;;;14.70;53.90;;;;;;5052782;28;20469;-72
2021/03/14 03:24:11;;;;;;;3.58;1.10;;;14.70;53.90;;;;;;5053407;28;20028;-72
2021/03/14 03:26:41;;;;;;;3.33;1.05;;;14.70;53.80;;;;;;5053937;28;20479;-72
2021/03/14 03:29:08;;;;;;;3.53;0.77;;;14.70;53.90;;;;;;5053614;28;20045;-72
2021/03/14 03:31:34;;;;;;;4.25;1.30;;;14.70;53.90;;;;;;5053158;28;20115;-72
2021/03/14 03:34:00;;;;;;;4.50;1.10;;;14.70;53.90;;;;;;5035424;28;20021;-72
2021/03/14 03:36:26;;;;;;;4.55;1.00;;;14.70;54.00;;;;;;5053229;28;20432;-72
2021/03/14 03:38:52;;;;;;;4.30;1.20;;;14.60;53.90;;;;;;5053712;28;20028;-73
2021/03/14 03:41:17;;;;;;;5.20;1.58;;;14.60;53.90;;;;;;5053041;28;20029;-72
2021/03/14 03:43:44;;;;;;;5.55;1.40;;;14.60;54.00;;;;;;5053358;28;20025;-72
2021/03/14 03:46:12;;;;;;;3.35;1.00;;;14.60;54.00;;;;;;5052658;28;20044;-72
2021/03/14 03:48:43;;;;;;;2.45;0.80;;;14.60;54.00;;;;;;5053308;28;20021;-72
2021/03/14 03:51:10;;;;;;;4.78;1.30;;;14.60;54.00;;;;;;5052076;28;20032;-73
2021/03/14 03:53:38;;;;;;;3.92;0.77;;;14.60;54.00;;;;;;5053150;28;20021;-72
2021/03/14 03:56:05;;;;;;;4.93;1.80;;;14.60;54.10;;;;;;5053367;28;20021;-72
2021/03/14 03:58:31;;;;;;;4.72;0.90;;;14.60;54.10;;;;;;5053258;28;20078;-72
2021/03/14 04:00:59;;;;;;;5.07;1.10;;;14.60;54.10;;;;;;5034366;28;20021;-72
2021/03/14 04:03:24;;;;;;;5.65;1.25;;;14.60;54.10;;;;;;5053252;28;20017;-72
2021/03/14 04:05:56;;;;;;;4.82;1.13;;;14.50;54.10;;;;;;5053078;28;20032;-73
2021/03/14 04:08:22;;;;;;;6.32;1.20;;;14.60;54.20;;;;;;5053008;28;20048;-73
2021/03/14 04:10:49;;;;;;;7.45;1.35;;;14.60;54.20;;;;;;5052717;28;20488;-73
2021/03/14 04:13:17;;;;;;;4.45;1.50;;;14.50;54.20;;;;;;5053054;28;20047;-72
2021/03/14 04:15:42;;;;;;;3.03;0.80;;;14.50;54.10;;;;;;5052426;28;20032;-73
2021/03/14 04:18:10;;;;;;;4.00;1.02;;;14.50;54.20;;;;;;5052982;28;20066;-72
2021/03/14 04:20:38;;;;;;;3.45;0.95;;;14.50;54.20;;;;;;5052914;28;20032;-72
2021/03/14 04:23:10;;;;;;;3.08;0.90;;;14.50;54.20;;;;;;5052578;28;20106;-72
2021/03/14 04:25:36;;;;;;;5.30;1.20;;;14.50;54.30;;;;;;5052696;28;20182;-72
2021/03/14 04:28:03;;;;;;;4.57;1.05;;;14.50;54.30;;;;;;5052357;28;20052;-73
2021/03/14 04:30:31;;;;;;;5.85;1.00;;;14.50;54.30;;;;;;5051932;28;20033;-73
2021/03/14 04:32:58;;;;;;;2.97;1.00;;;14.50;54.30;;;;;;5051660;28;20126;-73
2021/03/14 04:35:25;;;;;;;3.53;1.20;;;14.40;54.30;;;;;;5052451;28;20131;-73
2021/03/14 04:37:51;;;;;;;5.45;1.20;;;14.40;54.30;;;;;;5052743;28;20024;-73
2021/03/14 04:40:17;;;;;;;4.53;1.05;;;14.40;54.40;;;;;;5051717;28;20040;-72
2021/03/14 04:42:48;;;;;;;4.68;0.90;;;14.40;54.50;;;;;;5052190;28;20952;-72
2021/03/14 04:45:14;;;;;;;3.22;0.98;;;14.40;54.50;;;;;;5051952;28;20045;-73
2021/03/14 04:47:42;;;;;;;5.70;1.60;;;14.40;54.50;;;;;;5051900;28;20033;-73
2021/03/14 04:50:09;;;;;;;5.68;1.55;;;14.40;54.60;;;;;;5051963;28;20029;-73
2021/03/14 04:52:37;;;;;;;3.60;0.80;;;14.30;54.60;;;;;;5051624;28;20107;-72
2021/03/14 04:55:03;;;;;;;3.90;0.93;;;14.30;54.60;;;;;;5052251;28;20232;-72
2021/03/14 04:57:30;;;;;;;4.97;1.42;;;14.40;54.70;;;;;;5052230;28;20472;-72
2021/03/14 04:59:59;;;;;;;4.88;1.13;;;14.30;55.20;;;;;;5051655;28;20024;-72
2021/03/14 05:02:26;;;;;;;3.80;1.10;;;14.30;54.70;;;;;;5050972;28;20025;-73
2021/03/14 05:04:55;;;;;;;5.45;1.20;;;14.30;54.70;;;;;;5052124;28;20039;-72
2021/03/14 05:07:21;;;;;;;6.10;1.17;;;14.30;54.80;;;;;;5051767;28;20028;-72
2021/03/14 05:09:48;;;;;;;3.63;1.05;;;14.30;54.70;;;;;;5051677;28;20032;-73
2021/03/14 05:12:14;;;;;;;7.18;1.50;;;14.30;54.80;;;;;;5051966;28;20024;-73
2021/03/14 05:14:40;;;;;;;2.92;0.95;;;14.30;54.80;;;;;;5051558;28;20029;-73
2021/03/14 05:17:06;;;;;;;4.20;1.15;;;14.30;54.80;;;;;;5051445;28;20104;-72
2021/03/14 05:19:32;;;;;;;3.60;1.20;;;14.30;54.80;;;;;;5051907;28;20321;-72
2021/03/14 05:21:59;;;;;;;4.13;1.17;;;14.40;54.80;;;;;;5051848;28;20021;-72
2021/03/14 05:24:27;;;;;;;3.50;1.30;;;14.30;54.80;;;;;;5051458;28;20041;-72
2021/03/14 05:26:56;;;;;;;4.00;1.02;;;14.30;54.90;;;;;;5052050;28;20021;-73
2021/03/14 05:29:24;;;;;;;5.10;1.15;;;14.30;54.90;;;;;;5051736;28;20083;-72
2021/03/14 05:31:50;;;;;;;3.40;0.93;;;14.30;54.90;;;;;;5050787;28;20111;-72
2021/03/14 05:34:17;;;;;;;4.60;1.10;;;14.30;54.90;;;;;;5051752;28;20074;-73
2021/03/14 05:36:44;;;;;;;5.85;1.13;;;14.30;54.90;;;;;;5050950;28;20116;-72
2021/03/14 05:39:10;;;;;;;4.28;1.33;;;14.30;55.00;;;;;;5051241;28;20060;-73
2021/03/14 05:41:37;;;;;;;6.47;1.30;;;14.30;55.00;;;;;;5050526;28;20044;-72
2021/03/14 05:44:04;;;;;;;4.05;1.13;;;14.30;55.00;;;;;;5051069;28;20108;-73
2021/03/14 05:46:30;;;;;;;3.75;1.08;;;14.30;55.00;;;;;;5050745;28;20037;-73
2021/03/14 05:48:55;;;;;;;3.25;1.23;;;14.30;55.00;;;;;;5051369;28;20566;-72
2021/03/14 05:51:25;;;;;;;5.10;1.35;;;14.30;55.00;;;;;;5051151;28;20028;-72
2021/03/14 05:53:52;;;;;;;3.60;1.23;;;14.30;55.10;;;;;;5051434;28;20075;-73
2021/03/14 05:56:20;;;;;;;5.13;1.08;;;14.30;55.10;;;;;;5051055;28;20063;-73
2021/03/14 05:58:46;;;;;;;5.50;1.50;;;14.30;55.10;;;;;;5051495;28;20025;-73
2021/03/14 06:01:16;;;;;;;4.10;1.27;;;14.30;55.20;;;;;;5050013;28;20025;-73
2021/03/14 06:03:42;;;;;;;4.07;1.42;;;14.30;55.10;;;;;;5044564;28;20436;-73
2021/03/14 06:06:16;;;;;;;5.63;1.35;;;14.30;55.20;;;;;;5050882;28;20029;-73
2021/03/14 06:08:42;;;;;;;4.45;1.10;;;14.30;55.20;;;;;;5051281;28;20383;-73
2021/03/14 06:11:13;;;;;;;4.85;1.00;;;14.30;55.20;;;;;;5050780;28;20112;-73
2021/03/14 06:13:39;;;;;;;3.80;0.80;;;14.30;55.20;;;;;;5053018;28;20381;-73
2021/03/14 06:16:06;;;;;;;3.15;0.88;;;14.20;55.20;;;;;;5054487;28;20067;-72
2021/03/14 06:18:33;;;;;;;3.83;1.23;;;14.20;55.30;;;;;;5054766;28;20536;-72
2021/03/14 06:20:58;;;;;;;3.88;0.90;;;14.20;55.20;;;;;;5055434;28;20070;-72
2021/03/14 06:23:24;;;;;;;4.28;1.08;;;14.20;55.20;;;;;;5055236;28;20068;-72
2021/03/14 06:25:53;;;;;;;5.03;1.52;;;14.20;55.30;;;;;;5054482;28;20037;-72
2021/03/14 06:28:39;;;;;;;6.03;1.33;;;14.30;55.30;;;;;;5054821;28;20374;-72
2021/03/14 06:31:19;;;;;;;4.38;1.27;;;14.20;55.30;;;;;;5054101;28;20031;-73
2021/03/14 06:33:44;;;;;;;3.03;1.00;;;14.20;55.30;;;;;;5054497;28;20037;-72
2021/03/14 06:36:21;;;;;;;4.28;1.38;;;14.20;55.40;;;;;;5054838;28;20151;-72
2021/03/14 06:38:48;;;;;;;6.00;1.23;;;14.20;55.40;;;;;;5054137;28;20038;-73
2021/03/14 06:41:23;;;;;;;6.22;1.40;;;14.20;55.50;;;;;;5054123;28;20103;-72
2021/03/14 06:43:50;;;;;;;2.42;0.95;;;14.20;55.50;;;;;;5054425;28;20025;-72
2021/03/14 06:46:31;;;;;;;4.55;1.40;;;14.20;55.50;;;;;;5052753;28;20083;-72
2021/03/14 06:49:11;;;;;;;4.72;1.05;;;14.20;55.60;;;;;;5054566;28;20036;-72
2021/03/14 06:51:41;;;;;;;4.35;0.95;;;14.10;55.60;;;;;;5054253;28;20032;-72
2021/03/14 06:54:19;;;;;;;6.38;0.98;;;14.20;55.60;;;;;;5054569;28;20028;-73
2021/03/14 06:57:00;;;;;;;3.28;0.90;;;14.10;55.60;;;;;;5054338;28;20115;-72
2021/03/14 06:59:26;;;;;;;3.13;1.42;;;14.20;55.60;;;;;;5054556;28;20025;-72
2021/03/14 07:02:06;;;;;;;4.28;1.17;;;14.20;55.70;;;;;;5053264;28;20515;-72
2021/03/14 07:04:46;;;;;;;3.58;0.82;;;14.20;55.70;;;;;;5053215;28;20089;-72
2021/03/14 07:07:17;;;;;;;6.75;1.40;;;14.10;55.70;;;;;;5054301;28;20070;-71
2021/03/14 07:09:44;;;;;;;4.30;1.13;;;14.20;55.70;;;;;;5053835;28;20543;-71
2021/03/14 07:12:18;;;;;;;4.35;1.25;;;14.10;55.70;;;;;;5053595;28;20159;-71
2021/03/14 07:14:44;;;;;;;3.22;1.10;;;14.20;55.70;;;;;;5051936;28;20044;-71
2021/03/14 07:17:11;;;;;;;5.53;1.33;;;14.20;55.70;;;;;;5049684;28;20024;-71
2021/03/14 07:19:38;;;;;;;5.15;0.80;;;14.20;55.70;;;;;;5050688;28;20060;-71
2021/03/14 07:22:10;;;;;;;4.05;1.17;;;14.20;55.70;;;;;;5050005;28;20779;-71
2021/03/14 07:24:41;;;;;;;3.85;0.90;;;14.30;55.60;;;;;;5049081;28;20024;-71
2021/03/14 07:27:09;;;;;;;3.70;0.82;;;14.40;55.40;;;;;;5033768;28;20033;-71
2021/03/14 07:29:35;;;;;;;4.38;1.08;;;14.60;55.30;;;;;;5052263;28;20040;-72
2021/03/14 07:32:05;;;;;;;3.55;0.90;;;14.80;55.20;;;;;;5050813;28;20111;-71
2021/03/14 07:34:31;;;;;;;2.65;0.88;;;14.90;55.00;;;;;;5053999;28;20098;-71
2021/03/14 07:36:57;;;;;;;2.63;0.80;;;15.10;54.90;;;;;;5053187;28;20032;-72
2021/03/14 07:39:22;;;;;;;2.95;0.88;;;15.20;54.80;;;;;;5053712;28;20397;-72
2021/03/14 07:41:49;;;;;;;3.13;0.77;;;15.40;54.70;;;;;;5052301;28;20021;-72
2021/03/14 07:44:22;;;;;;;1.85;0.50;;;15.50;54.60;;;;;;5052655;28;20036;-72
2021/03/14 07:46:50;;;;;;;4.05;0.70;;;15.70;54.40;;;;;;5051289;28;20518;-72
2021/03/14 07:49:17;;;;;;;4.90;1.00;;;15.80;54.40;;;;;;5049808;28;20443;-72
2021/03/14 07:51:49;;;;;;;2.72;0.88;;;16.00;54.20;;;;;;5050659;28;20075;-72
2021/03/14 07:54:34;;;;;;;2.80;1.00;;;16.20;54.10;;;;;;5052293;28;20560;-72
2021/03/14 07:57:01;;;;;;;2.97;0.95;;;16.30;54.00;;;;;;5051821;28;20497;-72
2021/03/14 07:59:32;;;;;;;2.65;0.63;;;16.50;53.80;;;;;;5053150;28;20028;-70
2021/03/14 08:02:18;;;;;;;3.65;1.00;;;16.70;53.80;;;;;;5051921;28;20031;-71
2021/03/14 08:04:51;;;;;;;3.20;1.00;;;16.80;54.00;;;;;;5037601;28;20818;-72
2021/03/14 08:07:37;;;;;;;3.75;0.98;;;16.90;54.10;;;;;;5051608;28;20021;-72
2021/03/14 08:10:07;;;;;;;8.15;1.00;;;16.90;54.30;;;;;;5053349;28;20078;-73
2021/03/14 08:12:36;;;;;;;3.20;0.80;;;17.10;54.30;;;;;;5052398;28;20036;-72
2021/03/14 08:15:02;;;;;;;2.17;0.73;;;17.20;54.20;;;;;;5051991;28;20029;-73
2021/03/14 08:17:36;;;;;;;10.65;1.27;;;17.30;54.20;;;;;;5050865;28;20094;-72
2021/03/14 08:20:04;;;;;;;22.70;14.15;;;17.40;55.00;;;;;;5048685;28;20031;-72
2021/03/14 08:22:39;;;;;;;14.07;8.02;;;17.50;54.70;;;;;;5051972;28;20401;-72
2021/03/14 08:25:23;;;;;;;12.30;8.47;;;17.60;54.50;;;;;;5050479;28;20037;-72
2021/03/14 08:28:00;;;;;;;13.20;7.05;;;17.80;54.80;;;;;;5052673;28;20259;-72
2021/03/14 08:30:34;;;;;;;13.23;6.22;;;17.80;54.70;;;;;;5050343;28;20025;-73
2021/03/14 08:33:23;;;;;;;10.40;6.53;;;17.90;54.60;;;;;;5051539;28;20104;-72
2021/03/14 08:35:53;;;;;;;11.52;5.97;;;18.00;54.60;;;;;;5051672;28;20229;-73
2021/03/14 08:38:41;;;;;;;10.32;5.45;;;18.10;54.70;;;;;;5051551;28;20555;-72
2021/03/14 08:41:21;;;;;;;9.32;4.88;;;18.10;54.50;;;;;;5051477;28;20397;-72
2021/03/14 08:43:57;;;;;;;7.93;4.90;;;18.30;54.30;;;;;;5052188;28;20074;-72
2021/03/14 08:46:50;;;;;;;7.57;3.72;;;18.30;54.30;;;;;;5049463;28;20125;-71
2021/03/14 08:49:22;;;;;;;10.50;3.78;;;18.30;54.00;;;;;;5049476;28;20033;-71
2021/03/14 08:51:50;;;;;;;16.10;3.90;;;18.40;54.30;;;;;;5050441;28;20048;-72
2021/03/14 08:54:16;;;;;;;14.75;3.63;;;18.50;53.70;;;;;;5051824;28;20392;-72
2021/03/14 08:56:42;;;;;;;13.95;3.08;;;18.60;53.90;;;;;;5051202;28;20384;-72
2021/03/14 08:59:10;;;;;;;12.43;4.05;;;18.70;53.70;;;;;;5052017;28;20021;-72
2021/03/14 09:01:36;;;;;;;8.90;2.70;;;18.70;53.30;;;;;;5050886;28;20496;-73
2021/03/14 09:04:16;;;;;;;10.27;2.92;;;18.80;53.30;;;;;;5050752;28;20033;-72
2021/03/14 09:06:42;;;;;;;9.20;2.88;;;18.80;53.30;;;;;;5049400;28;20025;-73
2021/03/14 09:09:09;;;;;;;12.23;2.10;;;18.90;53.30;;;;;;5051575;28;20519;-73
2021/03/14 09:11:56;;;;;;;6.18;2.22;;;19.00;53.10;;;;;;5050771;28;20119;-73
2021/03/14 09:14:27;;;;;;;10.95;2.30;;;19.00;53.00;;;;;;5051784;28;20069;-72
2021/03/14 09:16:59;;;;;;;12.63;2.42;;;19.00;53.00;;;;;;5050387;28;20040;-73
2021/03/14 09:19:38;;;;;;;8.90;2.05;;;19.10;52.90;;;;;;5051140;28;20031;-73
2021/03/14 09:22:12;;;;;;;12.13;5.60;;;19.00;53.10;;;;;;5048969;28;20493;-73
2021/03/14 09:24:37;;;;;;;9.45;3.00;;;18.90;53.20;;;;;;5026673;28;20028;-73
2021/03/14 09:27:07;;;;;;;17.05;3.47;;;18.90;53.20;;;;;;5033246;28;20523;-74
2021/03/14 09:29:42;;;;;;;9.35;2.45;;;18.90;53.30;;;;;;5043204;28;20036;-74
2021/03/14 09:32:35;;;;;;;11.00;2.60;;;18.80;53.40;;;;;;5044124;28;20396;-74
2021/03/14 09:35:23;;;;;;;8.38;1.90;;;18.80;53.50;;;;;;5037562;28;20036;-74
2021/03/14 09:37:52;;;;;;;11.23;2.40;;;18.80;53.60;;;;;;5050582;28;20033;-74
2021/03/14 09:40:22;;;;;;;6.72;1.90;;;18.80;54.00;;;;;;5049804;28;20048;-75
2021/03/14 09:42:50;;;;;;;13.02;2.65;;;18.80;54.60;;;;;;5050389;28;20063;-75
2021/03/14 09:45:23;;;;;;;7.18;2.38;;;18.90;54.80;;;;;;5038770;28;20037;-75
2021/03/14 09:48:27;;;;;;;10.63;1.98;;;18.90;55.00;;;;;;5051147;28;20033;-74
2021/03/14 09:50:57;;;;;;;11.40;1.70;;;18.90;55.20;;;;;;4972331;28;20039;-74
2021/03/14 09:53:35;;;;;;;8.23;2.17;;;18.90;54.90;;;;;;5042256;28;20037;-74
2021/03/14 09:56:06;;;;;;;6.70;1.88;;;18.90;54.80;;;;;;5051504;28;20417;-74
2021/03/14 09:58:32;;;;;;;10.00;2.95;;;19.00;54.80;;;;;;5053471;28;20025;-75
2021/03/14 10:00:59;;;;;;;135.05;73.53;;;19.00;55.00;;;;;;5053557;28;20120;-74
2021/03/14 10:03:30;;;;;;;98.20;53.40;;;19.10;54.50;;;;;;5053590;28;20033;-75
2021/03/14 10:05:58;;;;;;;93.32;44.22;;;19.10;54.30;;;;;;5053723;28;20029;-74
2021/03/14 10:08:29;;;;;;;89.90;38.67;;;19.00;54.30;;;;;;5053234;28;20017;-74
2021/03/14 10:11:07;;;;;;;106.82;52.00;;;19.00;54.40;;;;;;5053607;28;20029;-75
2021/03/14 10:13:34;;;;;;;184.63;100.70;;;19.10;55.20;;;;;;5053607;28;20021;-78
2021/03/14 10:16:04;;;;;;;179.70;104.00;;;19.10;55.80;;;;;;5051043;28;20618;-75
2021/03/14 10:18:30;;;;;;;112.15;67.07;;;19.30;56.10;;;;;;5036023;28;20036;-75
2021/03/14 10:21:18;;;;;;;89.28;45.08;;;19.30;55.10;;;;;;5051935;28;20032;-82
2021/03/14 10:23:44;;;;;;;75.47;39.70;;;19.30;54.50;;;;;;5053839;28;20028;-79
2021/03/14 10:26:11;;;;;;;73.15;35.15;;;19.30;54.80;;;;;;5059385;28;20113;-79
2021/03/14 10:28:39;;;;;;;65.45;29.08;;;19.40;55.00;;;;;;5052498;28;20025;-81
2021/03/14 10:31:06;;;;;;;59.08;28.70;;;19.40;54.80;;;;;;5052937;28;20021;-76
2021/03/14 10:33:34;;;;;;;51.97;25.13;;;19.50;54.70;;;;;;5052941;28;20600;-75
2021/03/14 10:36:06;;;;;;;41.97;22.40;;;19.60;54.20;;;;;;5053961;28;20389;-75
2021/03/14 10:38:41;;;;;;;41.08;21.27;;;19.70;54.10;;;;;;5052865;28;20067;-76
2021/03/14 10:41:15;;;;;;;35.38;18.10;;;19.70;53.70;;;;;;5051037;28;20490;-76
2021/03/14 10:43:50;;;;;;;29.63;14.40;;;19.70;53.30;;;;;;5046197;28;20107;-75
2021/03/14 10:46:43;;;;;;;32.70;14.10;;;19.80;52.90;;;;;;5052301;28;20511;-77
2021/03/14 10:49:13;;;;;;;24.60;10.00;;;19.80;52.60;;;;;;5054124;28;20376;-76
2021/03/14 10:51:40;;;;;;;22.75;10.18;;;19.80;52.10;;;;;;5053065;28;20029;-75
2021/03/14 10:54:13;;;;;;;18.75;9.63;;;19.90;51.90;;;;;;5051685;28;20539;-74
2021/03/14 10:56:47;;;;;;;20.40;7.63;;;19.90;51.50;;;;;;5052808;28;20032;-76
2021/03/14 10:59:25;;;;;;;15.90;7.85;;;20.00;51.40;;;;;;5037817;28;20086;-76
2021/03/14 11:01:55;;;;;;;15.23;7.78;;;20.00;51.20;;;;;;5053298;28;20028;-75
2021/03/14 11:04:30;;;;;;;14.48;6.95;;;20.10;51.10;;;;;;5053004;28;20397;-76
2021/03/14 11:06:56;;;;;;;17.00;6.97;;;20.10;50.70;;;;;;5053124;28;20040;-75
2021/03/14 11:09:27;;;;;;;14.00;5.68;;;20.10;50.50;;;;;;5052500;28;20025;-75
2021/03/14 11:11:53;;;;;;;12.43;6.05;;;20.20;50.50;;;;;;5052467;28;20029;-75
2021/03/14 11:14:28;;;;;;;13.77;6.07;;;20.20;50.20;;;;;;5053005;28;20049;-76
2021/03/14 11:17:12;;;;;;;12.20;4.43;;;20.20;50.10;;;;;;5049832;28;20029;-79
2021/03/14 11:19:49;;;;;;;9.60;4.15;;;20.20;49.80;;;;;;5045795;28;20022;-77
2021/03/14 11:22:16;;;;;;;12.00;4.18;;;20.20;49.50;;;;;;5049419;28;20033;-76
2021/03/14 11:24:43;;;;;;;12.98;3.28;;;20.20;49.20;;;;;;5051092;28;20087;-78
2021/03/14 11:27:09;;;;;;;12.43;3.95;;;20.20;48.80;;;;;;5052893;28;20074;-78
2021/03/14 11:29:36;;;;;;;8.25;3.72;;;20.30;49.00;;;;;;5051762;28;20028;-80
2021/03/14 11:32:02;;;;;;;8.52;3.30;;;20.50;49.40;;;;;;5052335;28;20720;-79
2021/03/14 11:34:27;;;;;;;9.32;3.38;;;20.70;49.70;;;;;;5052003;28;20056;-78
2021/03/14 11:36:53;;;;;;;12.27;4.22;;;20.80;49.40;;;;;;5051684;28;20453;-81
2021/03/14 11:39:20;;;;;;;8.80;3.08;;;20.90;49.40;;;;;;5052514;28;20021;-76
2021/03/14 11:41:47;;;;;;;7.72;3.10;;;21.00;49.50;;;;;;5050292;28;20040;-79
2021/03/14 11:44:13;;;;;;;8.68;3.83;;;21.10;49.60;;;;;;5052115;28;20025;-79
2021/03/14 11:46:39;;;;;;;8.50;3.63;;;21.20;49.80;;;;;;5051903;28;20060;-77
2021/03/14 11:49:06;;;;;;;9.50;3.60;;;21.30;50.10;;;;;;5052384;28;20036;-76
2021/03/14 11:51:31;;;;;;;8.35;3.30;;;21.50;50.10;;;;;;5050745;28;20532;-81
2021/03/14 11:53:59;;;;;;;10.88;4.05;;;21.60;49.60;;;;;;5052434;28;20068;-76
2021/03/14 11:56:25;;;;;;;12.98;3.40;;;21.70;49.10;;;;;;5051236;28;20508;-80
2021/03/14 11:58:51;;;;;;;10.15;3.67;;;21.70;50.30;;;;;;5050885;28;20021;-80
2021/03/14 12:01:17;;;;;;;10.63;3.55;;;21.60;50.80;;;;;;5051468;28;20031;-78
2021/03/14 12:03:44;;;;;;;8.95;3.33;;;21.60;51.20;;;;;;5051303;28;20489;-76
2021/03/14 12:06:11;;;;;;;11.77;3.10;;;21.50;50.40;;;;;;5052461;28;20086;-76
2021/03/14 12:08:37;;;;;;;8.88;2.88;;;21.40;51.20;;;;;;5051546;28;20024;-77
2021/03/14 12:11:05;;;;;;;10.25;3.38;;;21.30;50.70;;;;;;5050092;28;20082;-77
2021/03/14 12:13:32;;;;;;;8.98;3.20;;;21.10;51.20;;;;;;5049170;28;20104;-77
2021/03/14 12:15:58;;;;;;;28.63;4.53;;;21.10;51.20;;;;;;5051287;28;20032;-76
2021/03/14 12:18:24;;;;;;;18.13;3.97;;;21.20;51.60;;;;;;5049279;28;20033;-78
2021/03/14 12:20:49;;;;;;;16.52;3.83;;;21.30;51.20;;;;;;5050866;28;20507;-76
2021/03/14 12:23:17;;;;;;;16.67;3.60;;;21.40;50.80;;;;;;5050471;28;20032;-75
2021/03/14 12:25:43;;;;;;;19.83;4.18;;;21.50;51.00;;;;;;5051665;28;20041;-75
2021/03/14 12:28:08;;;;;;;12.95;4.05;;;21.50;50.90;;;;;;5050609;28;20971;-78
2021/03/14 12:30:34;;;;;;;15.88;3.63;;;21.40;51.10;;;;;;5050598;28;20043;-75
2021/03/14 12:33:00;;;;;;;16.10;4.25;;;21.40;50.90;;;;;;5050549;28;20044;-74
2021/03/14 12:35:26;;;;;;;17.00;3.30;;;21.30;51.10;;;;;;5051406;28;20029;-76
2021/03/14 12:37:52;;;;;;;12.93;4.18;;;21.20;51.90;;;;;;5050813;28;20028;-75
2021/03/14 12:40:18;;;;;;;12.15;3.35;;;21.20;51.80;;;;;;5050657;28;20106;-78
2021/03/14 12:42:43;;;;;;;16.00;4.10;;;21.60;52.70;;;;;;5049733;28;20028;-76
2021/03/14 12:45:10;;;;;;;8.95;3.45;;;21.40;51.60;;;;;;5051644;28;20033;-76
2021/03/14 12:47:35;;;;;;;10.48;3.95;;;21.10;53.60;;;;;;5047410;28;20056;-75
2021/03/14 12:50:01;;;;;;;10.63;3.55;;;22.80;52.10;;;;;;5050401;28;20067;-76
2021/03/14 12:52:27;;;;;;;12.30;3.13;;;23.10;49.10;;;;;;5050528;28;20057;-76